Time;durP1;ratioP1;P1;durP2;ratioP2;P2;SDS_P1;SDS_P2;PMS_P1;PMS_P2;Temp;Humidity;BMP_temperature;BMP_pressure;BME280_temperature;BME280_humidity;BME280_pressure;Samples;Min_cycle;Max_cycle;Signal;HPM_P1;HPM_P2
2023/03/21 00:01:52;;;;;;;9.15;6.38;;;9.10;99.90;;;;;;5080180;28;20559;-67
2023/03/21 00:04:25;;;;;;;9.73;5.55;;;9.10;99.90;;;;;;5114136;28;20027;-68
2023/03/21 00:06:57;;;;;;;15.13;6.13;;;9.10;99.90;;;;;;5097107;28;20039;-68
2023/03/21 00:09:24;;;;;;;8.95;6.18;;;9.00;99.90;;;;;;5095232;28;20073;-68
2023/03/21 00:11:52;;;;;;;9.73;5.78;;;9.00;99.90;;;;;;5078288;28;20101;-67
2023/03/21 00:14:19;;;;;;;9.18;5.93;;;9.00;99.90;;;;;;5114193;28;20481;-67
2023/03/21 00:16:50;;;;;;;8.52;5.70;;;8.90;99.90;;;;;;5095686;28;20119;-68
2023/03/21 00:19:23;;;;;;;10.00;6.03;;;9.00;99.90;;;;;;5113154;28;20051;-68
2023/03/21 00:21:51;;;;;;;9.35;5.50;;;9.00;99.90;;;;;;5113293;28;20101;-68
2023/03/21 00:24:35;;;;;;;9.55;5.47;;;9.00;99.90;;;;;;5101812;28;20036;-68
2023/03/21 00:27:03;;;;;;;10.82;5.40;;;8.90;99.90;;;;;;5095435;28;20492;-68
2023/03/21 00:29:50;;;;;;;9.57;6.00;;;8.90;99.90;;;;;;5098781;28;20044;-68
2023/03/21 00:32:19;;;;;;;8.80;5.72;;;8.90;99.90;;;;;;5089455;28;20069;-68
2023/03/21 00:34:48;;;;;;;10.43;6.13;;;8.90;99.90;;;;;;5089064;28;20406;-68
2023/03/21 00:37:32;;;;;;;7.72;5.28;;;8.90;99.90;;;;;;5082605;28;20478;-68
2023/03/21 00:40:00;;;;;;;9.32;5.40;;;8.90;99.90;;;;;;5112150;28;20104;-68
2023/03/21 00:42:29;;;;;;;8.10;5.60;;;8.90;99.90;;;;;;5095139;28;20047;-69
2023/03/21 00:44:56;;;;;;;8.27;5.53;;;8.80;99.90;;;;;;5095591;28;20039;-68
2023/03/21 00:47:23;;;;;;;8.27;5.72;;;8.90;99.90;;;;;;5113392;28;20081;-68
2023/03/21 00:49:52;;;;;;;8.77;5.78;;;8.80;99.90;;;;;;5113313;28;20450;-68
2023/03/21 00:52:19;;;;;;;9.98;6.05;;;8.80;99.90;;;;;;5101739;28;20047;-68
2023/03/21 00:55:06;;;;;;;9.32;5.35;;;8.80;99.90;;;;;;5108507;28;20063;-68
2023/03/21 00:57:34;;;;;;;9.55;5.30;;;8.80;99.90;;;;;;5086792;28;20043;-68
2023/03/21 01:00:08;;;;;;;7.63;5.00;;;8.80;99.90;;;;;;5094925;28;20054;-68
2023/03/21 01:02:36;;;;;;;9.80;5.07;;;8.80;99.90;;;;;;5112713;28;20063;-69
2023/03/21 01:05:04;;;;;;;9.70;5.13;;;8.70;99.90;;;;;;5112854;28;20078;-69
2023/03/21 01:07:31;;;;;;;9.18;4.88;;;8.60;99.90;;;;;;5112737;28;20410;-69
2023/03/21 01:09:59;;;;;;;7.53;4.90;;;8.50;99.90;;;;;;5095049;28;20137;-68
2023/03/21 01:12:27;;;;;;;10.23;4.63;;;8.60;99.90;;;;;;5094332;28;20593;-68
2023/03/21 01:14:55;;;;;;;8.55;4.80;;;8.50;99.90;;;;;;5094773;28;20047;-68
2023/03/21 01:17:22;;;;;;;6.35;4.22;;;8.50;99.90;;;;;;5112918;28;20462;-68
2023/03/21 01:19:49;;;;;;;7.40;4.45;;;8.40;99.90;;;;;;5077386;28;20119;-68
2023/03/21 01:22:19;;;;;;;7.15;4.53;;;8.40;99.90;;;;;;5111991;28;20063;-68
2023/03/21 01:24:46;;;;;;;8.85;4.70;;;8.40;99.90;;;;;;5074641;28;20398;-68
2023/03/21 01:27:26;;;;;;;9.05;4.90;;;8.40;99.90;;;;;;5091760;28;20028;-68
2023/03/21 01:29:54;;;;;;;8.23;4.72;;;8.40;99.90;;;;;;5112295;28;20443;-68
2023/03/21 01:32:21;;;;;;;8.10;4.82;;;8.40;99.90;;;;;;5092503;28;20062;-67
2023/03/21 01:34:48;;;;;;;9.27;4.80;;;8.40;99.90;;;;;;5084521;28;20040;-68
2023/03/21 01:37:18;;;;;;;9.30;5.15;;;8.40;99.90;;;;;;5071875;28;20433;-69
2023/03/21 01:39:49;;;;;;;9.15;4.93;;;8.40;99.90;;;;;;5089628;28;20040;-68
2023/03/21 01:42:16;;;;;;;7.95;5.05;;;8.40;99.90;;;;;;5064431;28;20443;-68
2023/03/21 01:44:59;;;;;;;8.05;5.10;;;8.40;99.90;;;;;;5087845;28;20135;-68
2023/03/21 01:47:52;;;;;;;9.55;5.55;;;8.30;99.90;;;;;;5091230;28;20078;-69
2023/03/21 01:50:30;;;;;;;9.85;5.25;;;8.30;99.90;;;;;;5072260;28;20044;-69
2023/03/21 01:53:32;;;;;;;8.63;5.13;;;8.40;99.90;;;;;;5063223;28;20430;-68
2023/03/21 01:56:05;;;;;;;11.35;5.20;;;8.30;99.90;;;;;;5056694;28;20051;-69
2023/03/21 01:58:46;;;;;;;8.95;5.00;;;8.40;99.90;;;;;;5057303;28;20520;-68
2023/03/21 02:01:27;;;;;;;8.75;4.80;;;8.40;99.90;;;;;;5072813;28;20040;-68
2023/03/21 02:04:02;;;;;;;13.27;5.10;;;8.40;99.90;;;;;;5073617;28;20495;-68
2023/03/21 02:06:54;;;;;;;9.73;5.15;;;8.40;99.90;;;;;;5092811;28;20486;-68
2023/03/21 02:09:35;;;;;;;7.13;4.93;;;8.40;99.90;;;;;;5089626;28;20028;-68
2023/03/21 02:12:08;;;;;;;9.80;5.10;;;8.40;99.90;;;;;;5078640;28;20358;-69
2023/03/21 02:14:36;;;;;;;9.05;4.70;;;8.40;99.90;;;;;;5100031;28;20086;-69
2023/03/21 02:17:39;;;;;;;7.82;4.65;;;8.40;99.90;;;;;;5075148;28;20123;-68
2023/03/21 02:20:20;;;;;;;6.80;4.85;;;8.40;99.90;;;;;;5072219;28;20111;-69
2023/03/21 02:23:23;;;;;;;9.68;5.22;;;8.40;99.90;;;;;;5070240;28;20513;-68
2023/03/21 02:26:06;;;;;;;8.77;4.63;;;8.30;99.90;;;;;;5093771;28;20038;-68
2023/03/21 02:28:47;;;;;;;9.18;4.72;;;8.40;99.90;;;;;;5085422;28;20058;-68
2023/03/21 02:31:20;;;;;;;10.82;5.78;;;8.40;99.90;;;;;;5088369;28;20449;-68
2023/03/21 02:33:52;;;;;;;7.68;4.35;;;8.40;99.90;;;;;;5072541;28;20359;-68
2023/03/21 02:36:49;;;;;;;11.23;5.03;;;8.30;99.90;;;;;;5056041;28;20052;-68
2023/03/21 02:39:27;;;;;;;8.73;4.75;;;8.30;99.90;;;;;;5071738;28;20040;-68
2023/03/21 02:42:12;;;;;;;9.98;5.10;;;8.30;99.90;;;;;;5072367;28;20559;-68
2023/03/21 02:44:51;;;;;;;8.57;4.88;;;8.30;99.90;;;;;;5083184;28;20581;-67
2023/03/21 02:47:51;;;;;;;10.68;5.13;;;8.30;99.90;;;;;;5054846;28;20510;-68
2023/03/21 02:50:40;;;;;;;9.80;4.95;;;8.30;99.90;;;;;;5069609;28;20575;-68
2023/03/21 02:53:12;;;;;;;7.25;4.60;;;8.40;99.90;;;;;;5075055;28;20048;-68
2023/03/21 02:55:41;;;;;;;;;;;8.40;99.90;;;;;;5073112;28;20048;-68
2023/03/21 02:58:16;;;;;;;7.85;5.25;;;8.40;99.90;;;;;;5072574;28;19924;-67
2023/03/21 03:00:48;;;;;;;11.82;5.57;;;8.50;99.90;;;;;;5071699;28;20498;-68
2023/03/21 03:03:33;;;;;;;8.02;4.82;;;8.40;99.90;;;;;;5056396;28;20082;-68
2023/03/21 03:06:12;;;;;;;7.80;4.90;;;8.40;99.90;;;;;;5087050;28;20047;-69
2023/03/21 03:08:45;;;;;;;8.18;4.85;;;8.50;99.90;;;;;;5074095;28;20513;-68
2023/03/21 03:11:32;;;;;;;9.95;5.57;;;8.40;99.90;;;;;;5070601;28;20409;-69
2023/03/21 03:14:15;;;;;;;9.32;5.07;;;8.50;99.90;;;;;;5071178;28;20051;-69
2023/03/21 03:17:25;;;;;;;8.07;4.72;;;8.50;99.90;;;;;;5092770;28;20040;-68
2023/03/21 03:19:57;;;;;;;9.20;5.10;;;8.50;99.90;;;;;;5076590;28;20109;-68
2023/03/21 03:22:47;;;;;;;7.55;4.63;;;8.50;99.90;;;;;;5072737;28;20089;-68
2023/03/21 03:25:21;;;;;;;6.82;4.57;;;8.50;99.90;;;;;;5092927;28;20036;-68
2023/03/21 03:28:07;;;;;;;6.63;4.38;;;8.50;99.90;;;;;;5078153;28;20436;-68
2023/03/21 03:30:37;;;;;;;8.35;5.00;;;8.50;99.90;;;;;;5098615;28;20032;-68
2023/03/21 03:33:16;;;;;;;9.30;4.80;;;8.50;99.90;;;;;;5072531;28;20039;-69
2023/03/21 03:35:45;;;;;;;9.38;4.93;;;8.50;99.90;;;;;;5070858;28;20032;-69
2023/03/21 03:38:31;;;;;;;9.63;4.88;;;8.50;99.90;;;;;;5072299;28;20445;-69
2023/03/21 03:41:03;;;;;;;10.90;5.60;;;8.50;99.90;;;;;;5074469;28;20070;-68
2023/03/21 03:43:49;;;;;;;7.85;5.00;;;8.50;99.90;;;;;;5072466;28;20051;-68
2023/03/21 03:46:39;;;;;;;9.75;5.35;;;8.60;99.90;;;;;;5057556;28;20503;-69
2023/03/21 03:49:17;;;;;;;8.32;5.72;;;8.60;99.90;;;;;;5075276;28;20040;-69
2023/03/21 03:51:50;;;;;;;11.70;5.90;;;8.60;99.90;;;;;;5072423;28;20058;-68
2023/03/21 03:54:41;;;;;;;9.13;5.47;;;8.60;99.90;;;;;;5084308;28;20040;-68
2023/03/21 03:57:11;;;;;;;10.13;6.15;;;8.60;99.90;;;;;;5113018;28;20458;-69
2023/03/21 03:59:41;;;;;;;12.23;5.32;;;8.50;99.90;;;;;;5075574;28;20044;-68
2023/03/21 04:02:19;;;;;;;9.20;5.72;;;8.50;99.90;;;;;;5092967;28;20063;-69
2023/03/21 04:04:51;;;;;;;8.60;5.53;;;8.50;99.90;;;;;;5083012;28;20035;-68
2023/03/21 04:07:21;;;;;;;10.88;6.00;;;8.50;99.90;;;;;;5078419;28;20067;-69
2023/03/21 04:09:51;;;;;;;9.57;6.07;;;8.50;99.90;;;;;;5081309;28;20036;-68
2023/03/21 04:12:20;;;;;;;9.13;5.80;;;8.40;99.90;;;;;;5074255;28;20278;-68
2023/03/21 04:15:06;;;;;;;11.90;5.45;;;8.30;99.90;;;;;;5090956;28;20438;-69
2023/03/21 04:17:41;;;;;;;9.23;5.82;;;8.30;99.90;;;;;;5075859;28;20422;-68
2023/03/21 04:20:09;;;;;;;9.25;6.45;;;8.30;99.90;;;;;;5066085;28;20383;-68
2023/03/21 04:22:47;;;;;;;8.73;6.10;;;8.30;99.90;;;;;;5073867;28;20563;-68
2023/03/21 04:25:15;;;;;;;11.20;6.13;;;8.20;99.90;;;;;;5088749;28;20088;-68
2023/03/21 04:27:59;;;;;;;12.85;5.70;;;8.20;99.90;;;;;;5086513;28;20455;-68
2023/03/21 04:30:36;;;;;;;8.25;5.75;;;8.10;99.90;;;;;;5087065;28;20375;-68
2023/03/21 04:33:26;;;;;;;8.88;6.03;;;8.10;99.90;;;;;;5089844;28;20039;-69
2023/03/21 04:35:57;;;;;;;7.28;5.45;;;8.00;99.90;;;;;;5073479;28;20486;-67
2023/03/21 04:38:29;;;;;;;11.18;6.38;;;8.00;99.90;;;;;;5057941;28;20407;-68
2023/03/21 04:41:01;;;;;;;;;;;8.00;99.90;;;;;;5073465;28;20071;-68
2023/03/21 04:43:30;;;;;;;8.43;5.65;;;8.00;99.90;;;;;;5108472;28;20359;-68
2023/03/21 04:45:58;;;;;;;9.40;6.03;;;8.00;99.90;;;;;;5073562;28;20081;-69
2023/03/21 04:48:26;;;;;;;11.55;6.88;;;8.00;99.90;;;;;;5074148;28;20036;-67
2023/03/21 04:50:55;;;;;;;10.13;6.35;;;8.00;99.90;;;;;;5073044;28;20313;-67
2023/03/21 04:53:22;;;;;;;8.65;5.72;;;8.00;99.90;;;;;;5103855;28;20040;-67
2023/03/21 04:55:50;;;;;;;12.75;7.55;;;8.00;99.90;;;;;;5110753;28;20048;-68
2023/03/21 04:58:21;;;;;;;10.90;6.43;;;8.00;99.90;;;;;;5072703;28;20086;-68
2023/03/21 05:00:51;;;;;;;10.07;6.28;;;8.00;99.90;;;;;;5080301;28;20445;-68
2023/03/21 05:03:20;;;;;;;11.30;6.28;;;8.00;99.90;;;;;;5112128;27;20044;-68
2023/03/21 05:05:48;;;;;;;9.63;6.65;;;8.00;99.90;;;;;;5104047;28;20048;-68
2023/03/21 05:08:17;;;;;;;8.70;6.15;;;8.00;99.90;;;;;;5092395;28;20426;-68
2023/03/21 05:10:45;;;;;;;8.98;6.10;;;8.00;99.90;;;;;;5072931;28;20043;-68
2023/03/21 05:13:12;;;;;;;10.80;6.70;;;8.10;99.90;;;;;;5094761;28;20039;-68
2023/03/21 05:15:39;;;;;;;11.68;7.00;;;8.10;99.90;;;;;;5094569;28;20498;-68
2023/03/21 05:18:09;;;;;;;12.05;7.00;;;8.10;99.90;;;;;;5091860;28;20416;-68
2023/03/21 05:20:53;;;;;;;12.82;6.82;;;8.10;99.90;;;;;;5073143;28;20054;-68
2023/03/21 05:23:22;;;;;;;13.32;8.50;;;8.20;99.90;;;;;;5069301;28;20032;-69
2023/03/21 05:25:50;;;;;;;10.07;6.88;;;8.20;99.90;;;;;;5086925;28;20052;-68
2023/03/21 05:28:30;;;;;;;11.52;7.63;;;8.20;99.90;;;;;;5092990;28;20031;-68
2023/03/21 05:30:59;;;;;;;9.43;7.30;;;8.30;99.90;;;;;;5075403;28;20111;-67
2023/03/21 05:33:26;;;;;;;14.20;8.15;;;8.30;99.90;;;;;;5073751;28;20097;-68
2023/03/21 05:35:53;;;;;;;13.75;7.95;;;8.30;99.90;;;;;;5089834;28;20119;-68
2023/03/21 05:38:23;;;;;;;14.18;8.73;;;8.30;99.90;;;;;;5093922;28;20040;-68
2023/03/21 05:40:53;;;;;;;13.15;8.05;;;8.40;99.90;;;;;;5083475;28;20047;-68
2023/03/21 05:43:20;;;;;;;12.55;8.10;;;8.40;99.90;;;;;;5073766;28;20036;-68
2023/03/21 05:45:48;;;;;;;14.82;9.57;;;8.50;99.90;;;;;;5071282;28;20035;-68
2023/03/21 05:48:17;;;;;;;15.32;9.13;;;8.50;99.90;;;;;;5060116;28;20127;-68
2023/03/21 05:51:14;;;;;;;17.23;8.50;;;8.60;99.90;;;;;;5074689;28;20054;-68
2023/03/21 05:53:41;;;;;;;12.13;8.30;;;8.70;99.90;;;;;;5093428;28;20549;-68
2023/03/21 05:56:11;;;;;;;12.98;8.40;;;8.70;99.90;;;;;;5093962;28;20047;-69
2023/03/21 05:58:59;;;;;;;12.38;6.68;;;8.70;99.90;;;;;;5093167;28;20426;-69
2023/03/21 06:01:27;;;;;;;9.75;7.60;;;8.80;99.90;;;;;;5076086;28;20048;-68
2023/03/21 06:04:05;;;;;;;13.32;8.82;;;8.80;99.90;;;;;;5091349;28;20042;-67
2023/03/21 06:06:33;;;;;;;14.07;8.00;;;8.80;99.90;;;;;;5073518;28;20566;-68
2023/03/21 06:09:01;;;;;;;10.80;7.78;;;8.70;99.90;;;;;;5109367;28;20040;-69
2023/03/21 06:11:33;;;;;;;11.68;6.82;;;8.70;99.90;;;;;;5092869;28;20143;-68
2023/03/21 06:14:15;;;;;;;15.43;7.80;;;8.80;99.90;;;;;;5098964;28;20469;-68
2023/03/21 06:16:45;;;;;;;19.55;9.85;;;8.80;99.90;;;;;;5093099;28;20048;-67
2023/03/21 06:19:12;;;;;;;14.52;8.77;;;8.70;99.90;;;;;;5093682;28;20050;-68
2023/03/21 06:21:58;;;;;;;13.52;7.50;;;8.80;99.90;;;;;;5105517;28;20070;-68
2023/03/21 06:24:26;;;;;;;12.20;7.60;;;8.80;99.90;;;;;;5079467;28;20510;-67
2023/03/21 06:26:53;;;;;;;13.13;7.95;;;8.80;99.90;;;;;;5076124;28;20405;-67
2023/03/21 06:29:21;;;;;;;11.30;7.00;;;8.90;99.90;;;;;;5075785;28;20044;-67
2023/03/21 06:31:49;;;;;;;13.43;8.00;;;8.90;99.90;;;;;;5072194;28;20121;-69
2023/03/21 06:34:17;;;;;;;12.10;6.85;;;9.00;99.90;;;;;;5091018;28;20047;-69
2023/03/21 06:36:45;;;;;;;10.40;7.07;;;9.00;99.90;;;;;;5093183;28;20051;-69
2023/03/21 06:39:15;;;;;;;11.82;7.18;;;9.00;99.90;;;;;;5092200;28;20093;-69
2023/03/21 06:41:44;;;;;;;12.43;7.15;;;9.10;99.90;;;;;;5087014;28;20051;-70
2023/03/21 06:44:12;;;;;;;11.07;7.93;;;9.00;99.90;;;;;;5080784;28;20199;-75
2023/03/21 06:46:48;;;;;;;16.55;8.27;;;9.00;99.90;;;;;;5081667;28;20609;-75
2023/03/21 06:49:19;;;;;;;14.57;7.70;;;9.10;99.90;;;;;;5085698;28;20501;-69
2023/03/21 06:51:46;;;;;;;11.45;7.30;;;9.20;99.90;;;;;;5069548;28;20042;-69
2023/03/21 06:54:17;;;;;;;13.63;8.40;;;9.40;99.90;;;;;;5059542;28;20097;-69
2023/03/21 06:56:53;;;;;;;12.80;8.48;;;9.60;99.90;;;;;;5088668;28;20289;-68
2023/03/21 06:59:25;;;;;;;13.18;8.57;;;9.60;99.90;;;;;;5070507;28;20171;-66
2023/03/21 07:02:11;;;;;;;15.13;8.68;;;9.80;99.90;;;;;;5072454;28;20509;-67
2023/03/21 07:04:54;;;;;;;11.98;7.95;;;9.70;99.90;;;;;;5072804;28;20035;-68
2023/03/21 07:07:26;;;;;;;13.70;8.73;;;9.90;99.90;;;;;;5061292;28;20051;-65
2023/03/21 07:09:53;;;;;;;13.25;7.82;;;10.10;99.90;;;;;;5102093;28;20378;-67
2023/03/21 07:12:22;;;;;;;12.65;7.65;;;10.20;99.90;;;;;;5089625;28;20062;-67
2023/03/21 07:15:10;;;;;;;13.38;7.65;;;10.30;99.90;;;;;;5060645;28;20048;-66
2023/03/21 07:17:39;;;;;;;9.48;6.50;;;10.30;99.90;;;;;;5076192;28;20406;-69
2023/03/21 07:20:07;;;;;;;12.85;7.55;;;10.40;99.90;;;;;;5082781;28;20075;-68
2023/03/21 07:22:35;;;;;;;13.57;7.60;;;10.60;99.90;;;;;;5093120;28;20055;-70
2023/03/21 07:25:04;;;;;;;13.65;7.40;;;10.70;99.90;;;;;;5077480;28;20031;-68
2023/03/21 07:27:37;;;;;;;11.95;7.35;;;10.60;99.90;;;;;;5092929;28;20036;-69
2023/03/21 07:30:09;;;;;;;14.35;7.15;;;10.70;99.90;;;;;;5090927;28;20067;-70
2023/03/21 07:32:37;;;;;;;10.70;6.88;;;10.60;99.90;;;;;;5089689;28;20047;-69
2023/03/21 07:35:11;;;;;;;9.68;6.75;;;10.70;99.90;;;;;;5096321;28;20497;-69
2023/03/21 07:37:39;;;;;;;10.02;7.00;;;10.70;99.90;;;;;;5085145;28;20135;-68
2023/03/21 07:40:09;;;;;;;11.65;6.72;;;10.80;99.90;;;;;;5075910;28;20356;-69
2023/03/21 07:42:39;;;;;;;13.57;7.57;;;10.70;99.90;;;;;;5056676;28;20514;-69
2023/03/21 07:45:10;;;;;;;17.67;7.97;;;10.60;99.90;;;;;;5096124;28;20116;-68
2023/03/21 07:47:37;;;;;;;12.10;6.88;;;10.50;99.90;;;;;;5102644;28;20378;-68
2023/03/21 07:50:05;;;;;;;13.43;6.70;;;10.30;99.90;;;;;;5114363;28;20055;-70
2023/03/21 07:52:32;;;;;;;14.75;7.90;;;10.20;99.90;;;;;;5101981;28;20040;-69
2023/03/21 07:54:59;;;;;;;11.50;6.97;;;10.20;99.90;;;;;;5075382;28;20052;-69
2023/03/21 07:57:27;;;;;;;10.90;7.38;;;10.20;99.90;;;;;;5092231;28;20055;-68
2023/03/21 07:59:54;;;;;;;11.95;6.53;;;10.40;99.90;;;;;;5093422;28;20508;-69
2023/03/21 08:02:21;;;;;;;14.20;7.72;;;10.40;99.90;;;;;;5091788;28;20123;-68
2023/03/21 08:04:49;;;;;;;10.65;6.82;;;10.40;99.90;;;;;;5058679;28;20154;-70
2023/03/21 08:07:16;;;;;;;10.45;7.05;;;10.60;99.90;;;;;;5073689;28;20044;-68
2023/03/21 08:09:44;;;;;;;11.18;6.03;;;10.70;99.90;;;;;;5059280;28;20040;-69
2023/03/21 08:12:11;;;;;;;14.25;6.70;;;10.80;99.90;;;;;;5073973;28;20046;-69
2023/03/21 08:14:38;;;;;;;13.05;5.93;;;11.00;99.90;;;;;;5092918;28;20040;-68
2023/03/21 08:17:08;;;;;;;9.93;5.90;;;11.10;99.90;;;;;;5088451;28;20120;-67
2023/03/21 08:19:36;;;;;;;10.65;6.93;;;11.30;99.90;;;;;;5085205;28;20048;-69
2023/03/21 08:22:05;;;;;;;9.63;6.07;;;11.40;99.90;;;;;;5100225;28;20149;-69
2023/03/21 08:24:33;;;;;;;15.98;6.70;;;11.40;99.90;;;;;;5093039;28;20062;-69
2023/03/21 08:27:01;;;;;;;10.45;5.97;;;11.30;99.90;;;;;;5098289;28;20526;-69
2023/03/21 08:29:28;;;;;;;9.50;6.03;;;11.40;99.90;;;;;;5086777;28;20064;-69
2023/03/21 08:31:56;;;;;;;11.60;6.13;;;11.30;99.90;;;;;;5074154;28;20414;-69
2023/03/21 08:34:25;;;;;;;11.48;5.25;;;11.40;99.90;;;;;;5092496;28;20100;-70
2023/03/21 08:36:53;;;;;;;9.93;5.32;;;11.50;99.90;;;;;;5074378;28;20052;-70
2023/03/21 08:39:21;;;;;;;9.13;5.43;;;11.50;99.90;;;;;;5107835;28;20130;-68
2023/03/21 08:41:48;;;;;;;10.93;6.40;;;11.60;99.90;;;;;;5091244;28;20047;-68
2023/03/21 08:44:15;;;;;;;12.13;5.85;;;11.70;99.90;;;;;;5090307;28;20036;-68
2023/03/21 08:46:43;;;;;;;7.70;5.93;;;11.80;99.90;;;;;;5091994;28;20074;-71
2023/03/21 08:49:11;;;;;;;10.23;6.22;;;11.80;99.90;;;;;;5069826;28;20047;-70
2023/03/21 08:51:40;;;;;;;9.75;5.57;;;11.70;99.90;;;;;;5082527;28;20147;-69
2023/03/21 08:54:07;;;;;;;10.77;6.00;;;11.80;99.90;;;;;;5075059;28;20040;-68
2023/03/21 08:56:34;;;;;;;9.90;6.78;;;11.90;99.90;;;;;;5096238;28;20078;-72
2023/03/21 08:59:03;;;;;;;12.02;6.10;;;12.00;99.90;;;;;;5077374;28;20510;-69
2023/03/21 09:01:31;;;;;;;11.52;6.30;;;12.00;99.90;;;;;;5101556;28;20562;-70
2023/03/21 09:03:58;;;;;;;10.07;6.30;;;12.20;99.90;;;;;;5111650;28;20531;-74
2023/03/21 09:06:26;;;;;;;9.57;5.97;;;12.30;99.90;;;;;;5111435;28;20040;-71
2023/03/21 09:08:53;;;;;;;13.52;6.22;;;12.10;99.90;;;;;;5086858;28;20047;-73
2023/03/21 09:11:20;;;;;;;9.48;5.30;;;12.20;99.90;;;;;;5073432;28;20418;-74
2023/03/21 09:13:48;;;;;;;11.20;6.53;;;12.30;99.90;;;;;;5072901;28;20055;-72
2023/03/21 09:16:15;;;;;;;8.45;6.43;;;12.30;99.90;;;;;;5080425;28;20047;-74
2023/03/21 09:18:49;;;;;;;14.80;6.55;;;12.30;99.90;;;;;;5093272;28;20052;-74
2023/03/21 09:21:18;;;;;;;9.07;6.35;;;12.30;99.90;;;;;;5090780;28;20075;-74
2023/03/21 09:23:47;;;;;;;11.75;6.40;;;12.50;99.90;;;;;;5073958;28;20114;-75
2023/03/21 09:26:15;;;;;;;8.90;6.50;;;12.50;99.90;;;;;;5055598;28;20534;-70
2023/03/21 09:28:42;;;;;;;11.07;6.60;;;12.50;99.90;;;;;;5095108;28;20513;-73
2023/03/21 09:31:11;;;;;;;9.10;6.00;;;12.70;99.90;;;;;;5088914;28;20084;-74
2023/03/21 09:33:39;;;;;;;9.27;6.18;;;12.70;99.90;;;;;;5079471;28;20082;-73
2023/03/21 09:36:12;;;;;;;14.10;7.00;;;12.80;99.90;;;;;;5068819;28;20048;-73
2023/03/21 09:38:41;;;;;;;14.05;6.50;;;12.90;99.90;;;;;;5097551;28;20047;-74
2023/03/21 09:41:24;;;;;;;12.25;7.32;;;13.30;99.90;;;;;;5088549;28;20112;-73
2023/03/21 09:44:01;;;;;;;13.90;6.30;;;13.60;99.90;;;;;;5087222;28;20052;-73
2023/03/21 09:46:37;;;;;;;8.98;6.38;;;13.50;99.90;;;;;;5091608;28;20412;-73
2023/03/21 09:49:11;;;;;;;10.05;6.60;;;13.60;99.90;;;;;;5057624;28;20525;-74
2023/03/21 09:51:44;;;;;;;14.15;6.15;;;13.60;99.90;;;;;;5089039;28;20062;-71
2023/03/21 09:54:20;;;;;;;9.63;6.18;;;13.30;99.90;;;;;;5073547;28;20536;-74
2023/03/21 09:56:50;;;;;;;10.20;6.50;;;13.40;99.90;;;;;;5101047;28;20256;-76
2023/03/21 09:59:37;;;;;;;9.70;6.57;;;13.50;99.90;;;;;;5093328;28;20053;-71
2023/03/21 10:02:31;;;;;;;12.05;6.18;;;13.70;99.90;;;;;;5056248;28;20134;-73
2023/03/21 10:04:59;;;;;;;9.80;6.40;;;13.60;99.90;;;;;;5090678;28;20048;-74
2023/03/21 10:07:30;;;;;;;9.88;6.28;;;13.50;99.90;;;;;;5098730;28;20038;-71
2023/03/21 10:10:03;;;;;;;9.73;5.80;;;13.70;99.90;;;;;;5082275;28;20032;-74
2023/03/21 10:12:30;;;;;;;9.48;5.78;;;13.80;99.90;;;;;;5058732;28;20074;-73
2023/03/21 10:15:00;;;;;;;9.20;5.20;;;13.80;99.90;;;;;;5105359;28;20043;-72
2023/03/21 10:17:39;;;;;;;7.63;5.20;;;13.90;99.90;;;;;;5072622;28;20101;-75
2023/03/21 10:20:22;;;;;;;8.95;4.72;;;14.00;99.90;;;;;;5071593;28;20067;-74
2023/03/21 10:22:53;;;;;;;8.30;4.57;;;14.10;99.90;;;;;;5075814;28;20051;-75
2023/03/21 10:25:38;;;;;;;7.77;4.90;;;14.40;99.90;;;;;;5091528;28;20134;-73
2023/03/21 10:28:11;;;;;;;9.23;5.65;;;14.60;99.90;;;;;;5097104;28;20867;-74
2023/03/21 10:30:51;;;;;;;9.35;5.70;;;14.50;99.90;;;;;;5091255;28;20516;-75
2023/03/21 10:33:26;;;;;;;8.80;5.20;;;14.60;99.90;;;;;;5087559;28;20482;-74
2023/03/21 10:36:01;;;;;;;8.88;5.72;;;14.70;99.90;;;;;;5079483;28;20052;-75
2023/03/21 10:38:29;;;;;;;10.38;5.95;;;14.80;99.90;;;;;;5102684;28;20055;-73
2023/03/21 10:40:56;;;;;;;9.23;6.35;;;15.00;99.90;;;;;;5109510;28;20055;-74
2023/03/21 10:43:27;;;;;;;9.35;6.07;;;15.00;99.90;;;;;;5071512;28;20471;-73
2023/03/21 10:45:55;;;;;;;13.40;6.32;;;14.90;99.90;;;;;;5072147;28;20571;-74
2023/03/21 10:48:23;;;;;;;9.57;5.97;;;15.40;99.90;;;;;;5073075;28;20666;-74
2023/03/21 10:50:53;;;;;;;7.82;5.93;;;15.40;99.90;;;;;;5054811;28;20544;-73
2023/03/21 10:53:27;;;;;;;9.95;5.95;;;15.90;99.90;;;;;;5086478;28;20063;-75
2023/03/21 10:55:59;;;;;;;8.48;5.63;;;16.10;99.90;;;;;;5104095;28;20059;-73
2023/03/21 10:58:32;;;;;;;9.50;6.33;;;16.10;99.90;;;;;;5079738;28;20044;-74
2023/03/21 11:01:06;;;;;;;9.60;6.60;;;16.40;99.90;;;;;;5061793;28;20823;-73
2023/03/21 11:03:42;;;;;;;10.65;6.30;;;16.70;99.90;;;;;;5096018;28;20054;-72
2023/03/21 11:06:30;;;;;;;8.05;5.57;;;16.50;99.90;;;;;;5079516;28;20044;-73
2023/03/21 11:09:04;;;;;;;8.25;5.60;;;16.90;99.90;;;;;;5098907;28;20047;-74
2023/03/21 11:11:38;;;;;;;7.55;5.45;;;17.40;99.90;;;;;;5061836;28;20489;-71
2023/03/21 11:14:27;;;;;;;8.18;5.55;;;17.30;99.90;;;;;;5078756;28;20044;-74
2023/03/21 11:16:54;;;;;;;10.68;6.60;;;17.30;99.90;;;;;;5079563;28;20056;-73
2023/03/21 11:19:31;;;;;;;7.70;6.10;;;17.10;99.90;;;;;;5085627;28;20504;-72
2023/03/21 11:22:04;;;;;;;9.95;6.63;;;17.20;99.90;;;;;;5084977;28;20056;-72
2023/03/21 11:24:34;;;;;;;10.73;6.45;;;16.80;99.90;;;;;;5105602;28;20053;-72
2023/03/21 11:27:06;;;;;;;9.30;6.32;;;16.80;99.90;;;;;;5086327;28;20063;-73
2023/03/21 11:29:43;;;;;;;10.60;8.07;;;17.30;99.90;;;;;;5081390;28;20032;-73
2023/03/21 11:32:16;;;;;;;9.55;6.88;;;17.30;99.90;;;;;;5100723;28;20064;-75
2023/03/21 11:34:48;;;;;;;12.57;6.75;;;17.70;99.90;;;;;;5095353;28;20047;-72
2023/03/21 11:37:26;;;;;;;;;;;18.10;99.90;;;;;;5096994;28;20047;-74
2023/03/21 11:40:03;;;;;;;10.30;6.22;;;18.10;99.90;;;;;;5094734;28;20513;-74
2023/03/21 11:42:39;;;;;;;9.63;6.93;;;17.90;99.90;;;;;;5095745;28;20122;-73
2023/03/21 11:45:19;;;;;;;10.40;6.60;;;17.90;99.90;;;;;;5103768;28;20097;-73
2023/03/21 11:47:48;;;;;;;8.65;6.10;;;18.40;99.90;;;;;;5104945;28;20046;-73
2023/03/21 11:50:15;;;;;;;8.93;6.75;;;18.50;99.90;;;;;;5109521;28;20074;-75
2023/03/21 11:53:02;;;;;;;8.90;6.80;;;18.60;99.90;;;;;;5099290;28;20040;-73
2023/03/21 11:56:00;;;;;;;9.73;6.88;;;18.70;99.90;;;;;;5098833;28;20069;-71
2023/03/21 11:58:46;;;;;;;11.02;7.28;;;18.50;99.90;;;;;;5099642;28;20417;-74
2023/03/21 12:01:33;;;;;;;8.65;6.80;;;18.40;99.90;;;;;;5097133;28;20197;-73
2023/03/21 12:04:30;;;;;;;10.18;6.88;;;18.10;99.90;;;;;;5096109;28;20457;-71
2023/03/21 12:07:10;;;;;;;11.18;6.53;;;18.80;99.90;;;;;;5094481;28;20443;-73
2023/03/21 12:09:49;;;;;;;8.27;6.80;;;19.30;99.90;;;;;;5100278;28;20532;-73
2023/03/21 12:12:25;;;;;;;11.40;7.32;;;19.30;99.90;;;;;;5113553;28;20036;-73
2023/03/21 12:15:21;;;;;;;9.93;6.65;;;19.10;99.90;;;;;;5114149;28;20048;-73
2023/03/21 12:18:12;;;;;;;7.47;6.55;;;19.20;99.90;;;;;;5095478;28;20040;-74
2023/03/21 12:21:02;;;;;;;8.57;6.50;;;19.20;99.90;;;;;;5113695;28;20042;-74
2023/03/21 12:24:03;;;;;;;9.88;7.00;;;20.30;99.90;;;;;;5109499;28;20132;-73
2023/03/21 12:26:52;;;;;;;8.52;6.85;;;21.00;99.90;;;;;;5112185;28;20074;-72
2023/03/21 12:29:25;;;;;;;7.60;6.80;;;20.90;99.90;;;;;;5033210;28;20047;-73
2023/03/21 12:32:10;;;;;;;8.40;6.68;;;20.50;99.90;;;;;;5113243;28;20573;-74
2023/03/21 12:34:52;;;;;;;7.38;6.22;;;20.40;99.90;;;;;;5099670;28;20371;-74
2023/03/21 12:37:22;;;;;;;;;;;21.30;99.90;;;;;;5113831;28;20069;-73
2023/03/21 12:39:49;;;;;;;7.50;6.80;;;21.80;99.90;;;;;;5113459;28;20448;-76
2023/03/21 12:42:52;;;;;;;12.15;7.28;;;22.20;99.90;;;;;;5093373;28;20070;-73
2023/03/21 12:45:35;;;;;;;7.30;6.60;;;22.80;99.90;;;;;;5074869;28;20050;-72
2023/03/21 12:48:32;;;;;;;7.05;6.35;;;23.30;99.60;;;;;;5102852;28;20038;-73
2023/03/21 12:51:03;;;;;;;8.13;6.90;;;23.80;98.00;;;;;;5094556;28;20036;-73
2023/03/21 12:53:38;;;;;;;7.85;6.97;;;22.70;97.80;;;;;;5113364;28;20035;-73
2023/03/21 12:56:10;;;;;;;7.07;6.38;;;22.70;98.10;;;;;;5113267;28;20043;-74
2023/03/21 12:58:50;;;;;;;6.70;6.03;;;22.40;98.50;;;;;;5094637;28;20052;-75
2023/03/21 13:01:20;;;;;;;7.78;6.75;;;23.10;98.10;;;;;;5094562;28;20039;-74
2023/03/21 13:04:08;;;;;;;8.63;6.10;;;23.50;97.10;;;;;;5113194;28;20088;-65
2023/03/21 13:06:37;;;;;;;8.77;6.60;;;24.70;95.50;;;;;;5112576;28;20397;-67
2023/03/21 13:09:23;;;;;;;7.45;6.35;;;25.50;94.10;;;;;;5113009;28;20052;-67
2023/03/21 13:12:48;;;;;;;8.63;6.68;;;24.40;93.90;;;;;;5094353;28;20050;-67
2023/03/21 13:15:24;;;;;;;9.57;6.78;;;24.90;93.20;;;;;;4993968;28;20456;-65
2023/03/21 13:18:03;;;;;;;8.23;6.95;;;24.60;93.30;;;;;;4957592;28;20528;-65
2023/03/21 13:20:36;;;;;;;7.30;6.60;;;25.20;92.30;;;;;;5026880;28;20428;-67
2023/03/21 13:23:05;;;;;;;7.32;6.63;;;26.10;91.10;;;;;;5005493;28;20065;-66
2023/03/21 13:25:42;;;;;;;7.53;6.72;;;26.00;90.70;;;;;;4971658;28;20073;-66